sensor_id;sensor_type;location;lat;lon;timestamp;noise_LAeq;noise_LA_min;noise_LA_max;noise_LA01;noise_LA95
67324;Laerm;57667;51.438;5.968;2023-04-24T00:00:07;37.32;34.34;44.90;;
67324;Laerm;57667;51.438;5.968;2023-04-24T00:00:22;39.07;34.32;52.10;;
67324;Laerm;57667;51.438;5.968;2023-04-24T00:00:33;36.46;34.01;38.61;;
67324;Laerm;57667;51.438;5.968;2023-04-24T00:00:43;36.36;34.13;39.75;;
67324;Laerm;57667;51.438;5.968;2023-04-24T00:00:55;38.29;34.89;48.60;;
67324;Laerm;57667;51.438;5.968;2023-04-24T00:01:09;37.57;34.85;40.25;;
67324;Laerm;57667;51.438;5.968;2023-04-24T00:01:19;56.85;37.74;69.52;;
67324;Laerm;57667;51.438;5.968;2023-04-24T00:01:29;72.13;68.80;75.92;;
67324;Laerm;57667;51.438;5.968;2023-04-24T00:01:40;66.83;53.61;74.08;;
67324;Laerm;57667;51.438;5.968;2023-04-24T00:01:50;52.22;44.86;62.01;;
67324;Laerm;57667;51.438;5.968;2023-04-24T00:02:01;44.23;34.67;63.24;;
67324;Laerm;57667;51.438;5.968;2023-04-24T00:02:13;34.98;32.63;45.87;;
67324;Laerm;57667;51.438;5.968;2023-04-24T00:02:23;36.89;32.72;45.47;;
67324;Laerm;57667;51.438;5.968;2023-04-24T00:02:34;36.38;33.93;46.60;;
67324;Laerm;57667;51.438;5.968;2023-04-24T00:02:44;37.62;34.03;46.79;;
67324;Laerm;57667;51.438;5.968;2023-04-24T00:03:00;41.58;35.60;55.55;;
67324;Laerm;57667;51.438;5.968;2023-04-24T00:03:11;43.74;38.37;55.46;;
67324;Laerm;57667;51.438;5.968;2023-04-24T00:03:23;43.96;41.44;51.93;;
67324;Laerm;57667;51.438;5.968;2023-04-24T00:03:33;43.07;38.89;49.31;;
67324;Laerm;57667;51.438;5.968;2023-04-24T00:03:44;45.05;38.50;53.28;;
67324;Laerm;57667;51.438;5.968;2023-04-24T00:03:55;42.52;39.41;44.92;;
67324;Laerm;57667;51.438;5.968;2023-04-24T00:04:09;44.21;39.65;53.93;;
67324;Laerm;57667;51.438;5.968;2023-04-24T00:04:20;41.02;37.95;46.78;;
67324;Laerm;57667;51.438;5.968;2023-04-24T00:04:31;38.59;35.49;41.52;;
67324;Laerm;57667;51.438;5.968;2023-04-24T00:04:41;37.76;35.19;40.98;;
67324;Laerm;57667;51.438;5.968;2023-04-24T00:04:54;41.16;35.75;54.46;;
67324;Laerm;57667;51.438;5.968;2023-04-24T00:05:05;53.28;38.58;64.63;;
67324;Laerm;57667;51.438;5.968;2023-04-24T00:05:16;43.97;41.53;46.82;;
67324;Laerm;57667;51.438;5.968;2023-04-24T00:05:27;41.20;38.56;46.16;;
67324;Laerm;57667;51.438;5.968;2023-04-24T00:05:37;42.82;38.92;50.52;;
67324;Laerm;57667;51.438;5.968;2023-04-24T00:05:50;43.31;39.34;48.29;;
67324;Laerm;57667;51.438;5.968;2023-04-24T00:06:01;44.04;39.60;47.97;;
67324;Laerm;57667;51.438;5.968;2023-04-24T00:06:12;42.27;39.46;50.05;;
67324;Laerm;57667;51.438;5.968;2023-04-24T00:06:22;44.95;38.48;53.74;;
67324;Laerm;57667;51.438;5.968;2023-04-24T00:06:33;50.95;40.74;63.93;;
67324;Laerm;57667;51.438;5.968;2023-04-24T00:06:44;42.40;39.92;46.34;;
67324;Laerm;57667;51.438;5.968;2023-04-24T00:06:54;48.16;39.30;59.54;;
67324;Laerm;57667;51.438;5.968;2023-04-24T00:07:07;44.91;37.31;55.35;;
67324;Laerm;57667;51.438;5.968;2023-04-24T00:07:17;41.00;36.30;49.25;;
67324;Laerm;57667;51.438;5.968;2023-04-24T00:07:27;40.03;35.71;52.54;;
67324;Laerm;57667;51.438;5.968;2023-04-24T00:07:38;40.07;37.65;46.22;;
67324;Laerm;57667;51.438;5.968;2023-04-24T00:07:48;48.47;37.45;58.20;;
67324;Laerm;57667;51.438;5.968;2023-04-24T00:07:58;42.67;37.53;51.67;;
67324;Laerm;57667;51.438;5.968;2023-04-24T00:08:09;41.07;36.60;53.15;;
67324;Laerm;57667;51.438;5.968;2023-04-24T00:08:19;40.92;35.75;50.31;;
67324;Laerm;57667;51.438;5.968;2023-04-24T00:08:29;37.91;35.80;41.62;;
67324;Laerm;57667;51.438;5.968;2023-04-24T00:08:40;38.34;36.72;39.93;;
67324;Laerm;57667;51.438;5.968;2023-04-24T00:08:50;40.84;37.10;50.21;;
67324;Laerm;57667;51.438;5.968;2023-04-24T00:09:00;51.30;39.66;61.75;;
67324;Laerm;57667;51.438;5.968;2023-04-24T00:09:11;44.19;37.03;55.23;;
67324;Laerm;57667;51.438;5.968;2023-04-24T00:09:21;38.68;35.64;45.52;;
67324;Laerm;57667;51.438;5.968;2023-04-24T00:09:31;39.39;35.29;43.31;;
67324;Laerm;57667;51.438;5.968;2023-04-24T00:09:45;42.83;37.72;51.71;;
67324;Laerm;57667;51.438;5.968;2023-04-24T00:09:55;49.11;36.66;59.40;;
67324;Laerm;57667;51.438;5.968;2023-04-24T00:10:06;42.72;35.05;57.50;;
67324;Laerm;57667;51.438;5.968;2023-04-24T00:10:16;38.64;37.01;42.44;;
67324;Laerm;57667;51.438;5.968;2023-04-24T00:10:26;38.31;36.44;40.03;;
67324;Laerm;57667;51.438;5.968;2023-04-24T00:10:37;38.06;36.31;41.71;;
67324;Laerm;57667;51.438;5.968;2023-04-24T00:10:47;40.85;35.19;51.53;;
67324;Laerm;57667;51.438;5.968;2023-04-24T00:10:57;44.79;41.50;50.96;;
67324;Laerm;57667;51.438;5.968;2023-04-24T00:11:08;47.24;42.99;60.75;;
67324;Laerm;57667;51.438;5.968;2023-04-24T00:11:19;50.60;38.03;61.99;;
67324;Laerm;57667;51.438;5.968;2023-04-24T00:11:30;38.35;35.85;45.34;;
67324;Laerm;57667;51.438;5.968;2023-04-24T00:11:40;37.50;34.53;44.62;;
67324;Laerm;57667;51.438;5.968;2023-04-24T00:11:51;36.77;34.66;39.03;;
67324;Laerm;57667;51.438;5.968;2023-04-24T00:12:01;38.84;36.27;45.12;;
67324;Laerm;57667;51.438;5.968;2023-04-24T00:12:14;42.21;39.21;52.88;;
67324;Laerm;57667;51.438;5.968;2023-04-24T00:12:25;44.00;40.62;55.40;;
67324;Laerm;57667;51.438;5.968;2023-04-24T00:12:35;43.04;39.13;49.65;;
67324;Laerm;57667;51.438;5.968;2023-04-24T00:12:46;44.21;38.64;51.35;;
67324;Laerm;57667;51.438;5.968;2023-04-24T00:12:56;45.94;37.71;57.69;;
67324;Laerm;57667;51.438;5.968;2023-04-24T00:13:06;41.98;36.00;52.44;;
67324;Laerm;57667;51.438;5.968;2023-04-24T00:13:17;37.59;34.40;46.72;;
67324;Laerm;57667;51.438;5.968;2023-04-24T00:13:27;35.95;34.47;37.68;;
67324;Laerm;57667;51.438;5.968;2023-04-24T00:13:40;36.93;35.14;39.05;;
67324;Laerm;57667;51.438;5.968;2023-04-24T00:13:51;35.87;34.06;38.04;;
67324;Laerm;57667;51.438;5.968;2023-04-24T00:14:01;35.81;33.71;37.95;;
67324;Laerm;57667;51.438;5.968;2023-04-24T00:14:12;37.58;35.21;40.30;;
67324;Laerm;57667;51.438;5.968;2023-04-24T00:14:22;37.38;35.56;40.98;;
67324;Laerm;57667;51.438;5.968;2023-04-24T00:14:32;37.67;35.92;40.39;;
67324;Laerm;57667;51.438;5.968;2023-04-24T00:14:43;38.27;35.59;42.35;;
67324;Laerm;57667;51.438;5.968;2023-04-24T00:14:53;47.28;39.70;56.68;;
67324;Laerm;57667;51.438;5.968;2023-04-24T00:15:04;44.95;37.38;56.65;;
67324;Laerm;57667;51.438;5.968;2023-04-24T00:15:14;42.39;36.28;59.52;;
67324;Laerm;57667;51.438;5.968;2023-04-24T00:15:25;39.89;37.31;42.96;;
67324;Laerm;57667;51.438;5.968;2023-04-24T00:15:35;41.28;38.93;48.14;;
67324;Laerm;57667;51.438;5.968;2023-04-24T00:15:45;48.65;39.84;64.45;;
67324;Laerm;57667;51.438;5.968;2023-04-24T00:15:56;43.49;38.56;51.75;;
67324;Laerm;57667;51.438;5.968;2023-04-24T00:16:06;47.09;39.90;56.09;;
67324;Laerm;57667;51.438;5.968;2023-04-24T00:16:16;41.22;38.27;44.87;;
67324;Laerm;57667;51.438;5.968;2023-04-24T00:16:27;48.28;38.76;59.28;;
67324;Laerm;57667;51.438;5.968;2023-04-24T00:16:37;42.66;37.69;50.94;;
67324;Laerm;57667;51.438;5.968;2023-04-24T00:16:48;47.86;39.61;60.14;;
67324;Laerm;57667;51.438;5.968;2023-04-24T00:16:58;44.70;38.30;56.21;;
67324;Laerm;57667;51.438;5.968;2023-04-24T00:17:08;41.54;37.47;50.57;;
67324;Laerm;57667;51.438;5.968;2023-04-24T00:17:19;39.94;38.21;44.53;;
67324;Laerm;57667;51.438;5.968;2023-04-24T00:17:32;43.35;39.79;53.09;;
67324;Laerm;57667;51.438;5.968;2023-04-24T00:17:42;45.76;36.51;59.63;;
67324;Laerm;57667;51.438;5.968;2023-04-24T00:17:52;37.42;35.54;42.43;;
67324;Laerm;57667;51.438;5.968;2023-04-24T00:18:03;37.92;35.16;44.97;;
67324;Laerm;57667;51.438;5.968;2023-04-24T00:18:13;38.01;36.03;40.99;;
67324;Laerm;57667;51.438;5.968;2023-04-24T00:18:24;37.54;35.55;43.09;;
67324;Laerm;57667;51.438;5.968;2023-04-24T00:18:34;37.12;35.12;39.25;;
67324;Laerm;57667;51.438;5.968;2023-04-24T00:18:44;41.18;36.22;52.85;;
67324;Laerm;57667;51.438;5.968;2023-04-24T00:18:55;43.08;40.34;45.55;;
67324;Laerm;57667;51.438;5.968;2023-04-24T00:19:05;47.95;41.27;57.43;;
67324;Laerm;57667;51.438;5.968;2023-04-24T00:19:16;48.15;44.44;52.54;;
67324;Laerm;57667;51.438;5.968;2023-04-24T00:19:27;46.23;43.55;56.07;;
67324;Laerm;57667;51.438;5.968;2023-04-24T00:19:37;48.57;40.38;61.30;;
67324;Laerm;57667;51.438;5.968;2023-04-24T00:19:48;42.24;40.07;47.00;;
67324;Laerm;57667;51.438;5.968;2023-04-24T00:20:00;43.60;37.31;57.22;;
67324;Laerm;57667;51.438;5.968;2023-04-24T00:20:13;38.33;35.68;41.47;;
67324;Laerm;57667;51.438;5.968;2023-04-24T00:20:24;38.82;36.51;42.02;;
67324;Laerm;57667;51.438;5.968;2023-04-24T00:20:35;40.94;38.37;47.95;;
67324;Laerm;57667;51.438;5.968;2023-04-24T00:20:45;39.49;36.32;45.17;;
67324;Laerm;57667;51.438;5.968;2023-04-24T00:20:56;40.26;36.39;53.84;;
67324;Laerm;57667;51.438;5.968;2023-04-24T00:21:06;40.05;36.48;47.32;;
67324;Laerm;57667;51.438;5.968;2023-04-24T00:21:17;42.62;37.19;57.05;;
67324;Laerm;57667;51.438;5.968;2023-04-24T00:21:27;40.12;36.72;47.30;;
67324;Laerm;57667;51.438;5.968;2023-04-24T00:21:38;43.54;36.38;57.26;;
67324;Laerm;57667;51.438;5.968;2023-04-24T00:21:48;40.41;36.78;52.15;;
67324;Laerm;57667;51.438;5.968;2023-04-24T00:22:01;43.98;37.86;56.28;;
67324;Laerm;57667;51.438;5.968;2023-04-24T00:22:12;43.00;38.24;50.87;;
67324;Laerm;57667;51.438;5.968;2023-04-24T00:22:26;42.02;38.71;48.93;;
67324;Laerm;57667;51.438;5.968;2023-04-24T00:22:36;50.80;44.21;62.82;;
67324;Laerm;57667;51.438;5.968;2023-04-24T00:22:46;50.26;40.89;61.12;;
67324;Laerm;57667;51.438;5.968;2023-04-24T00:22:57;42.81;37.04;50.86;;
67324;Laerm;57667;51.438;5.968;2023-04-24T00:23:07;37.76;36.05;40.01;;
67324;Laerm;57667;51.438;5.968;2023-04-24T00:23:18;38.35;35.56;41.56;;
67324;Laerm;57667;51.438;5.968;2023-04-24T00:23:28;40.94;38.28;43.53;;
67324;Laerm;57667;51.438;5.968;2023-04-24T00:23:38;48.03;41.85;62.17;;
67324;Laerm;57667;51.438;5.968;2023-04-24T00:23:49;55.04;42.85;66.00;;
67324;Laerm;57667;51.438;5.968;2023-04-24T00:23:59;48.99;40.43;61.62;;
67324;Laerm;57667;51.438;5.968;2023-04-24T00:24:09;40.30;36.41;49.58;;
67324;Laerm;57667;51.438;5.968;2023-04-24T00:24:20;37.79;34.85;41.63;;
67324;Laerm;57667;51.438;5.968;2023-04-24T00:24:30;37.05;33.49;48.60;;
67324;Laerm;57667;51.438;5.968;2023-04-24T00:24:41;35.80;33.43;40.49;;
67324;Laerm;57667;51.438;5.968;2023-04-24T00:24:51;36.06;32.82;43.23;;
67324;Laerm;57667;51.438;5.968;2023-04-24T00:25:01;34.42;32.39;36.86;;
67324;Laerm;57667;51.438;5.968;2023-04-24T00:25:12;34.55;32.76;36.24;;
67324;Laerm;57667;51.438;5.968;2023-04-24T00:25:22;35.32;33.40;37.88;;
67324;Laerm;57667;51.438;5.968;2023-04-24T00:25:32;34.57;32.90;36.49;;
67324;Laerm;57667;51.438;5.968;2023-04-24T00:25:43;34.41;32.77;36.20;;
67324;Laerm;57667;51.438;5.968;2023-04-24T00:25:53;34.19;32.35;36.16;;
67324;Laerm;57667;51.438;5.968;2023-04-24T00:26:03;38.07;34.21;47.26;;
67324;Laerm;57667;51.438;5.968;2023-04-24T00:26:14;36.63;33.75;42.06;;
67324;Laerm;57667;51.438;5.968;2023-04-24T00:26:24;35.50;31.94;47.72;;
67324;Laerm;57667;51.438;5.968;2023-04-24T00:26:34;35.33;32.66;40.49;;
67324;Laerm;57667;51.438;5.968;2023-04-24T00:26:45;40.94;34.12;51.59;;
67324;Laerm;57667;51.438;5.968;2023-04-24T00:26:55;47.78;38.82;58.86;;
67324;Laerm;57667;51.438;5.968;2023-04-24T00:27:06;39.87;35.86;48.78;;
67324;Laerm;57667;51.438;5.968;2023-04-24T00:27:16;43.93;37.51;52.56;;
67324;Laerm;57667;51.438;5.968;2023-04-24T00:27:26;50.20;40.82;66.26;;
67324;Laerm;57667;51.438;5.968;2023-04-24T00:27:36;42.29;39.42;46.79;;
67324;Laerm;57667;51.438;5.968;2023-04-24T00:27:48;40.69;35.72;46.30;;
67324;Laerm;57667;51.438;5.968;2023-04-24T00:27:58;45.93;35.76;60.32;;
67324;Laerm;57667;51.438;5.968;2023-04-24T00:28:09;45.17;38.07;58.13;;
67324;Laerm;57667;51.438;5.968;2023-04-24T00:28:19;38.42;34.73;47.38;;
67324;Laerm;57667;51.438;5.968;2023-04-24T00:28:30;39.16;36.34;44.31;;
67324;Laerm;57667;51.438;5.968;2023-04-24T00:28:40;42.28;38.26;51.28;;
67324;Laerm;57667;51.438;5.968;2023-04-24T00:28:50;40.13;36.17;45.87;;
67324;Laerm;57667;51.438;5.968;2023-04-24T00:29:01;39.74;36.78;45.48;;
67324;Laerm;57667;51.438;5.968;2023-04-24T00:29:11;50.59;36.22;63.36;;
67324;Laerm;57667;51.438;5.968;2023-04-24T00:29:21;44.54;35.26;55.02;;
67324;Laerm;57667;51.438;5.968;2023-04-24T00:29:32;37.96;33.92;46.78;;
67324;Laerm;57667;51.438;5.968;2023-04-24T00:29:42;37.68;34.33;47.89;;
67324;Laerm;57667;51.438;5.968;2023-04-24T00:29:52;39.87;36.41;49.68;;
67324;Laerm;57667;51.438;5.968;2023-04-24T00:30:03;43.10;37.96;52.21;;
67324;Laerm;57667;51.438;5.968;2023-04-24T00:30:13;39.15;36.47;46.06;;
67324;Laerm;57667;51.438;5.968;2023-04-24T00:30:24;35.89;33.94;39.65;;
67324;Laerm;57667;51.438;5.968;2023-04-24T00:30:34;36.60;33.94;47.21;;
67324;Laerm;57667;51.438;5.968;2023-04-24T00:30:44;36.55;33.62;42.59;;
67324;Laerm;57667;51.438;5.968;2023-04-24T00:30:55;37.58;35.30;43.55;;
67324;Laerm;57667;51.438;5.968;2023-04-24T00:31:05;38.91;35.06;46.07;;
67324;Laerm;57667;51.438;5.968;2023-04-24T00:31:16;42.35;38.08;53.13;;
67324;Laerm;57667;51.438;5.968;2023-04-24T00:31:26;46.36;42.17;51.15;;
67324;Laerm;57667;51.438;5.968;2023-04-24T00:31:36;49.02;42.40;59.30;;
67324;Laerm;57667;51.438;5.968;2023-04-24T00:31:46;49.19;41.35;60.04;;
67324;Laerm;57667;51.438;5.968;2023-04-24T00:31:57;49.37;39.59;58.82;;
67324;Laerm;57667;51.438;5.968;2023-04-24T00:32:07;46.91;39.86;58.03;;
67324;Laerm;57667;51.438;5.968;2023-04-24T00:32:17;43.05;39.03;50.42;;
67324;Laerm;57667;51.438;5.968;2023-04-24T00:32:28;40.02;37.65;49.08;;
67324;Laerm;57667;51.438;5.968;2023-04-24T00:32:38;47.34;37.86;55.93;;
67324;Laerm;57667;51.438;5.968;2023-04-24T00:32:48;41.18;38.83;47.37;;
67324;Laerm;57667;51.438;5.968;2023-04-24T00:32:59;42.28;38.28;52.86;;
67324;Laerm;57667;51.438;5.968;2023-04-24T00:33:09;39.26;35.54;46.68;;
67324;Laerm;57667;51.438;5.968;2023-04-24T00:33:19;38.21;35.86;43.01;;
67324;Laerm;57667;51.438;5.968;2023-04-24T00:33:30;38.78;35.38;45.45;;
67324;Laerm;57667;51.438;5.968;2023-04-24T00:33:40;44.42;34.26;57.70;;
67324;Laerm;57667;51.438;5.968;2023-04-24T00:33:51;42.55;35.26;53.52;;
67324;Laerm;57667;51.438;5.968;2023-04-24T00:34:01;38.52;34.25;53.57;;
67324;Laerm;57667;51.438;5.968;2023-04-24T00:34:12;36.17;34.28;43.07;;
67324;Laerm;57667;51.438;5.968;2023-04-24T00:34:22;36.46;33.92;43.17;;
67324;Laerm;57667;51.438;5.968;2023-04-24T00:34:33;36.95;35.37;39.09;;
67324;Laerm;57667;51.438;5.968;2023-04-24T00:34:43;37.19;34.55;40.94;;
67324;Laerm;57667;51.438;5.968;2023-04-24T00:34:53;37.02;35.06;38.97;;
67324;Laerm;57667;51.438;5.968;2023-04-24T00:35:04;35.33;33.55;37.22;;
67324;Laerm;57667;51.438;5.968;2023-04-24T00:35:15;37.60;33.98;45.04;;
67324;Laerm;57667;51.438;5.968;2023-04-24T00:35:26;40.51;34.86;49.42;;
67324;Laerm;57667;51.438;5.968;2023-04-24T00:35:36;39.31;36.15;49.28;;
67324;Laerm;57667;51.438;5.968;2023-04-24T00:35:47;38.57;33.59;51.71;;
67324;Laerm;57667;51.438;5.968;2023-04-24T00:35:57;38.39;35.41;43.97;;
67324;Laerm;57667;51.438;5.968;2023-04-24T00:36:07;37.96;35.28;46.30;;
67324;Laerm;57667;51.438;5.968;2023-04-24T00:36:18;41.97;35.02;54.74;;
67324;Laerm;57667;51.438;5.968;2023-04-24T00:36:30;36.75;34.41;40.88;;
67324;Laerm;57667;51.438;5.968;2023-04-24T00:36:41;41.49;36.31;44.12;;
67324;Laerm;57667;51.438;5.968;2023-04-24T00:36:51;41.59;39.30;44.02;;
67324;Laerm;57667;51.438;5.968;2023-04-24T00:37:02;49.17;41.41;57.63;;
67324;Laerm;57667;51.438;5.968;2023-04-24T00:37:12;40.51;36.84;47.68;;
67324;Laerm;57667;51.438;5.968;2023-04-24T00:37:22;38.61;35.52;45.61;;
67324;Laerm;57667;51.438;5.968;2023-04-24T00:37:33;39.04;35.82;40.97;;
67324;Laerm;57667;51.438;5.968;2023-04-24T00:37:43;39.72;37.55;42.91;;
67324;Laerm;57667;51.438;5.968;2023-04-24T00:37:53;38.01;35.81;44.75;;
67324;Laerm;57667;51.438;5.968;2023-04-24T00:38:04;40.72;37.83;43.48;;
67324;Laerm;57667;51.438;5.968;2023-04-24T00:38:14;41.95;39.18;45.65;;
67324;Laerm;57667;51.438;5.968;2023-04-24T00:38:24;39.33;36.56;41.74;;
67324;Laerm;57667;51.438;5.968;2023-04-24T00:38:35;42.84;35.43;53.85;;
67324;Laerm;57667;51.438;5.968;2023-04-24T00:38:45;39.74;34.92;52.43;;
67324;Laerm;57667;51.438;5.968;2023-04-24T00:38:56;39.95;37.21;43.56;;
67324;Laerm;57667;51.438;5.968;2023-04-24T00:39:06;43.13;39.25;46.34;;
67324;Laerm;57667;51.438;5.968;2023-04-24T00:39:19;46.72;39.42;55.95;;
67324;Laerm;57667;51.438;5.968;2023-04-24T00:39:29;43.88;37.59;54.00;;
67324;Laerm;57667;51.438;5.968;2023-04-24T00:39:39;41.31;37.89;44.73;;
67324;Laerm;57667;51.438;5.968;2023-04-24T00:39:50;39.14;36.98;42.34;;
67324;Laerm;57667;51.438;5.968;2023-04-24T00:40:00;41.22;36.77;49.12;;
67324;Laerm;57667;51.438;5.968;2023-04-24T00:40:10;47.02;39.17;57.94;;
67324;Laerm;57667;51.438;5.968;2023-04-24T00:40:21;39.48;36.61;47.54;;
67324;Laerm;57667;51.438;5.968;2023-04-24T00:40:31;38.82;36.51;47.08;;
67324;Laerm;57667;51.438;5.968;2023-04-24T00:40:42;40.63;35.53;49.06;;
67324;Laerm;57667;51.438;5.968;2023-04-24T00:40:52;42.34;35.61;53.48;;
67324;Laerm;57667;51.438;5.968;2023-04-24T00:41:04;42.41;33.24;56.06;;
67324;Laerm;57667;51.438;5.968;2023-04-24T00:41:14;35.83;34.04;37.20;;
67324;Laerm;57667;51.438;5.968;2023-04-24T00:41:25;35.67;34.14;37.21;;
67324;Laerm;57667;51.438;5.968;2023-04-24T00:41:35;35.75;33.60;40.15;;
67324;Laerm;57667;51.438;5.968;2023-04-24T00:41:46;35.23;33.43;39.11;;
67324;Laerm;57667;51.438;5.968;2023-04-24T00:41:57;36.85;33.54;47.18;;
67324;Laerm;57667;51.438;5.968;2023-04-24T00:42:07;36.43;34.38;42.24;;
67324;Laerm;57667;51.438;5.968;2023-04-24T00:42:18;35.82;33.79;37.45;;
67324;Laerm;57667;51.438;5.968;2023-04-24T00:42:28;37.28;35.57;39.16;;
67324;Laerm;57667;51.438;5.968;2023-04-24T00:42:39;40.12;37.39;46.11;;
67324;Laerm;57667;51.438;5.968;2023-04-24T00:42:50;39.14;36.21;41.33;;
67324;Laerm;57667;51.438;5.968;2023-04-24T00:43:00;41.23;36.97;45.06;;
67324;Laerm;57667;51.438;5.968;2023-04-24T00:43:11;61.23;42.06;72.22;;
67324;Laerm;57667;51.438;5.968;2023-04-24T00:43:21;44.40;39.92;55.61;;
67324;Laerm;57667;51.438;5.968;2023-04-24T00:43:32;41.53;38.50;49.76;;
67324;Laerm;57667;51.438;5.968;2023-04-24T00:43:42;42.37;38.52;50.43;;
67324;Laerm;57667;51.438;5.968;2023-04-24T00:43:53;42.88;39.06;50.05;;
67324;Laerm;57667;51.438;5.968;2023-04-24T00:44:03;40.77;38.17;49.11;;
67324;Laerm;57667;51.438;5.968;2023-04-24T00:44:14;48.16;37.95;60.96;;
67324;Laerm;57667;51.438;5.968;2023-04-24T00:44:24;43.79;37.00;56.93;;
67324;Laerm;57667;51.438;5.968;2023-04-24T00:44:35;42.34;37.31;52.21;;
67324;Laerm;57667;51.438;5.968;2023-04-24T00:44:45;38.04;34.92;40.98;;
67324;Laerm;57667;51.438;5.968;2023-04-24T00:44:56;36.82;34.86;42.00;;
67324;Laerm;57667;51.438;5.968;2023-04-24T00:45:06;39.56;34.39;48.57;;
67324;Laerm;57667;51.438;5.968;2023-04-24T00:45:17;39.17;34.78;44.87;;
67324;Laerm;57667;51.438;5.968;2023-04-24T00:45:27;40.22;37.80;44.75;;
67324;Laerm;57667;51.438;5.968;2023-04-24T00:45:38;43.44;37.69;53.61;;
67324;Laerm;57667;51.438;5.968;2023-04-24T00:45:48;47.68;38.54;59.36;;
67324;Laerm;57667;51.438;5.968;2023-04-24T00:45:58;43.08;38.80;54.62;;
67324;Laerm;57667;51.438;5.968;2023-04-24T00:46:12;47.09;38.01;61.96;;
67324;Laerm;57667;51.438;5.968;2023-04-24T00:46:22;54.28;42.03;67.31;;
67324;Laerm;57667;51.438;5.968;2023-04-24T00:46:32;42.52;37.82;50.99;;
67324;Laerm;57667;51.438;5.968;2023-04-24T00:46:43;40.44;38.10;42.71;;
67324;Laerm;57667;51.438;5.968;2023-04-24T00:46:53;46.89;40.76;56.65;;
67324;Laerm;57667;51.438;5.968;2023-04-24T00:47:04;53.70;41.49;69.55;;
67324;Laerm;57667;51.438;5.968;2023-04-24T00:47:15;46.36;41.67;56.17;;
67324;Laerm;57667;51.438;5.968;2023-04-24T00:47:25;58.66;43.19;69.13;;
67324;Laerm;57667;51.438;5.968;2023-04-24T00:47:36;49.04;44.28;58.93;;
67324;Laerm;57667;51.438;5.968;2023-04-24T00:47:47;45.00;40.94;49.95;;
67324;Laerm;57667;51.438;5.968;2023-04-24T00:47:58;41.60;38.68;50.41;;
67324;Laerm;57667;51.438;5.968;2023-04-24T00:48:10;43.65;38.51;53.93;;
67324;Laerm;57667;51.438;5.968;2023-04-24T00:48:21;47.98;42.51;62.60;;
67324;Laerm;57667;51.438;5.968;2023-04-24T00:48:33;49.11;43.20;58.62;;
67324;Laerm;57667;51.438;5.968;2023-04-24T00:48:44;48.16;40.73;57.29;;
67324;Laerm;57667;51.438;5.968;2023-04-24T00:48:55;45.69;38.00;63.84;;
67324;Laerm;57667;51.438;5.968;2023-04-24T00:49:06;39.56;36.87;44.53;;
67324;Laerm;57667;51.438;5.968;2023-04-24T00:49:16;38.62;36.19;44.03;;
67324;Laerm;57667;51.438;5.968;2023-04-24T00:49:27;40.85;37.37;46.78;;
67324;Laerm;57667;51.438;5.968;2023-04-24T00:49:38;53.04;40.55;66.30;;
67324;Laerm;57667;51.438;5.968;2023-04-24T00:49:48;46.15;39.09;56.17;;
67324;Laerm;57667;51.438;5.968;2023-04-24T00:50:00;43.05;40.52;47.28;;
67324;Laerm;57667;51.438;5.968;2023-04-24T00:50:11;41.25;39.45;43.12;;
67324;Laerm;57667;51.438;5.968;2023-04-24T00:50:23;42.76;38.79;48.10;;
67324;Laerm;57667;51.438;5.968;2023-04-24T00:50:35;40.87;38.17;43.56;;
67324;Laerm;57667;51.438;5.968;2023-04-24T00:50:45;44.58;38.15;54.17;;
67324;Laerm;57667;51.438;5.968;2023-04-24T00:50:56;58.74;43.36;68.42;;
67324;Laerm;57667;51.438;5.968;2023-04-24T00:51:07;46.41;40.21;58.78;;
67324;Laerm;57667;51.438;5.968;2023-04-24T00:51:18;44.60;37.17;56.62;;
67324;Laerm;57667;51.438;5.968;2023-04-24T00:51:28;50.77;37.47;64.42;;
67324;Laerm;57667;51.438;5.968;2023-04-24T00:51:40;53.63;37.34;65.97;;
67324;Laerm;57667;51.438;5.968;2023-04-24T00:51:55;42.85;37.38;50.81;;
67324;Laerm;57667;51.438;5.968;2023-04-24T00:52:06;41.51;37.85;48.61;;
67324;Laerm;57667;51.438;5.968;2023-04-24T00:52:18;42.74;37.85;51.60;;
67324;Laerm;57667;51.438;5.968;2023-04-24T00:52:30;40.94;38.89;43.36;;
67324;Laerm;57667;51.438;5.968;2023-04-24T00:52:42;42.39;40.33;46.58;;
67324;Laerm;57667;51.438;5.968;2023-04-24T00:52:52;42.11;38.81;49.02;;
67324;Laerm;57667;51.438;5.968;2023-04-24T00:53:03;47.60;38.81;62.93;;
67324;Laerm;57667;51.438;5.968;2023-04-24T00:53:13;43.17;38.22;57.96;;
67324;Laerm;57667;51.438;5.968;2023-04-24T00:53:23;42.01;38.20;51.09;;
67324;Laerm;57667;51.438;5.968;2023-04-24T00:53:34;45.00;39.95;52.71;;
67324;Laerm;57667;51.438;5.968;2023-04-24T00:53:44;50.72;45.06;59.30;;
67324;Laerm;57667;51.438;5.968;2023-04-24T00:53:54;48.58;42.19;59.09;;
67324;Laerm;57667;51.438;5.968;2023-04-24T00:54:05;45.94;42.10;52.52;;
67324;Laerm;57667;51.438;5.968;2023-04-24T00:54:15;42.54;39.22;47.99;;
67324;Laerm;57667;51.438;5.968;2023-04-24T00:54:26;44.42;40.71;49.94;;
67324;Laerm;57667;51.438;5.968;2023-04-24T00:54:36;49.17;42.50;64.96;;
67324;Laerm;57667;51.438;5.968;2023-04-24T00:54:46;46.00;39.42;54.63;;
67324;Laerm;57667;51.438;5.968;2023-04-24T00:54:57;41.97;39.06;47.54;;
67324;Laerm;57667;51.438;5.968;2023-04-24T00:55:07;42.65;39.78;49.01;;
67324;Laerm;57667;51.438;5.968;2023-04-24T00:55:18;52.62;39.62;66.57;;
67324;Laerm;57667;51.438;5.968;2023-04-24T00:55:28;55.45;39.47;70.58;;
67324;Laerm;57667;51.438;5.968;2023-04-24T00:55:39;42.67;40.01;46.43;;
67324;Laerm;57667;51.438;5.968;2023-04-24T00:55:49;44.08;40.25;49.28;;
67324;Laerm;57667;51.438;5.968;2023-04-24T00:56:01;50.85;41.85;63.88;;
67324;Laerm;57667;51.438;5.968;2023-04-24T00:56:11;54.31;43.42;66.74;;
67324;Laerm;57667;51.438;5.968;2023-04-24T00:56:22;57.18;39.49;72.17;;
67324;Laerm;57667;51.438;5.968;2023-04-24T00:56:33;45.11;37.57;56.51;;
67324;Laerm;57667;51.438;5.968;2023-04-24T00:56:44;50.54;40.68;64.93;;
67324;Laerm;57667;51.438;5.968;2023-04-24T00:56:54;57.15;38.00;71.86;;
67324;Laerm;57667;51.438;5.968;2023-04-24T00:57:05;50.84;38.01;62.35;;
67324;Laerm;57667;51.438;5.968;2023-04-24T00:57:15;40.33;36.55;48.44;;
67324;Laerm;57667;51.438;5.968;2023-04-24T00:57:26;38.86;36.49;43.67;;
67324;Laerm;57667;51.438;5.968;2023-04-24T00:57:37;45.61;37.17;54.17;;
67324;Laerm;57667;51.438;5.968;2023-04-24T00:57:47;55.79;44.35;67.71;;
67324;Laerm;57667;51.438;5.968;2023-04-24T00:57:58;48.82;42.58;56.19;;
67324;Laerm;57667;51.438;5.968;2023-04-24T00:58:09;42.26;40.15;45.77;;
67324;Laerm;57667;51.438;5.968;2023-04-24T00:58:19;41.02;38.51;46.46;;
67324;Laerm;57667;51.438;5.968;2023-04-24T00:58:30;42.53;38.56;49.13;;
67324;Laerm;57667;51.438;5.968;2023-04-24T00:58:41;47.36;40.31;61.17;;
67324;Laerm;57667;51.438;5.968;2023-04-24T00:58:52;53.23;42.90;67.20;;
67324;Laerm;57667;51.438;5.968;2023-04-24T00:59:02;43.71;40.68;50.38;;
67324;Laerm;57667;51.438;5.968;2023-04-24T00:59:16;41.96;38.58;48.75;;
67324;Laerm;57667;51.438;5.968;2023-04-24T00:59:27;53.62;39.87;65.26;;
67324;Laerm;57667;51.438;5.968;2023-04-24T00:59:37;52.55;39.61;67.20;;
67324;Laerm;57667;51.438;5.968;2023-04-24T00:59:47;46.29;39.86;60.45;;
67324;Laerm;57667;51.438;5.968;2023-04-24T00:59:58;43.01;38.74;54.81;;